Time;durP1;ratioP1;P1;durP2;ratioP2;P2;SDS_P1;SDS_P2;PMS_P1;PMS_P2;Temp;Humidity;BMP_temperature;BMP_pressure;BME280_temperature;BME280_humidity;BME280_pressure;Samples;Min_cycle;Max_cycle;Signal;HPM_P1;HPM_P2
2023/05/13 00:02:12;;;;;;;26.30;24.25;;;9.20;99.90;;;;;;5005801;28;20132;-78
2023/05/13 00:04:39;;;;;;;26.42;24.20;;;9.20;99.90;;;;;;5008970;28;20037;-78
2023/05/13 00:07:06;;;;;;;26.98;24.63;;;9.10;99.90;;;;;;5018100;28;20522;-76
2023/05/13 00:09:33;;;;;;;25.50;23.50;;;8.90;99.90;;;;;;5007739;28;20047;-77
2023/05/13 00:12:00;;;;;;;26.55;24.05;;;8.90;99.90;;;;;;5022817;28;20068;-77
2023/05/13 00:14:27;;;;;;;27.85;25.13;;;8.80;99.90;;;;;;5005382;28;20042;-75
2023/05/13 00:16:54;;;;;;;27.33;24.77;;;8.80;99.90;;;;;;5019123;28;20542;-76
2023/05/13 00:19:21;;;;;;;28.23;25.77;;;8.70;99.90;;;;;;4998141;28;20081;-76
2023/05/13 00:21:47;;;;;;;27.05;24.27;;;8.80;99.90;;;;;;5003241;28;20079;-76
2023/05/13 00:24:14;;;;;;;26.63;24.27;;;8.80;99.90;;;;;;4999570;28;20049;-77
2023/05/13 00:26:41;;;;;;;26.90;24.52;;;8.80;99.90;;;;;;5004031;28;20122;-77
2023/05/13 00:29:07;;;;;;;26.20;23.88;;;8.80;99.90;;;;;;5014019;28;20041;-76
2023/05/13 00:31:35;;;;;;;26.13;23.65;;;8.70;99.90;;;;;;5022317;28;20662;-77
2023/05/13 00:34:03;;;;;;;26.17;24.10;;;8.60;99.90;;;;;;5010650;28;20041;-77
2023/05/13 00:36:29;;;;;;;26.75;24.48;;;8.60;99.90;;;;;;5001244;28;20045;-77
2023/05/13 00:38:56;;;;;;;27.48;24.83;;;8.60;99.90;;;;;;5006092;28;20072;-77
2023/05/13 00:41:23;;;;;;;26.75;24.45;;;8.60;99.90;;;;;;5004019;28;20068;-77
2023/05/13 00:43:53;;;;;;;27.65;25.27;;;8.60;99.90;;;;;;5012282;28;20061;-77
2023/05/13 00:46:20;;;;;;;29.40;26.42;;;8.60;99.90;;;;;;5004571;28;20131;-77
2023/05/13 00:48:47;;;;;;;27.88;25.58;;;8.50;99.90;;;;;;4999674;28;20041;-77
2023/05/13 00:51:13;;;;;;;27.90;25.40;;;8.50;99.90;;;;;;5016288;28;20071;-77
2023/05/13 00:53:41;;;;;;;27.42;25.15;;;8.40;99.90;;;;;;5001611;28;20049;-77
2023/05/13 00:56:08;;;;;;;27.55;25.25;;;8.30;99.90;;;;;;5011595;28;22058;-77
2023/05/13 00:58:35;;;;;;;26.42;24.10;;;8.40;99.90;;;;;;4996121;28;20367;-77
2023/05/13 01:01:01;;;;;;;26.65;24.55;;;8.50;99.90;;;;;;5004060;28;20062;-76
2023/05/13 01:03:38;;;;;;;26.02;23.83;;;8.50;99.90;;;;;;5004296;28;20050;-76
2023/05/13 01:06:26;;;;;;;27.73;25.35;;;8.40;99.90;;;;;;5000569;28;20042;-78
2023/05/13 01:09:06;;;;;;;27.00;24.65;;;8.40;99.90;;;;;;5014097;28;20041;-79
2023/05/13 01:11:37;;;;;;;28.02;25.40;;;8.30;99.90;;;;;;4982633;28;20041;-77
2023/05/13 01:14:24;;;;;;;26.65;24.38;;;8.40;99.90;;;;;;4996510;28;20614;-76
2023/05/13 01:16:57;;;;;;;26.60;24.35;;;8.60;99.90;;;;;;4985189;28;20470;-75
2023/05/13 01:19:42;;;;;;;27.85;25.60;;;8.70;99.90;;;;;;4968574;28;20092;-77
2023/05/13 01:22:09;;;;;;;26.90;24.35;;;8.80;99.90;;;;;;4995151;28;20148;-78
2023/05/13 01:24:36;;;;;;;27.17;24.83;;;8.90;99.90;;;;;;4998778;28;20662;-78
2023/05/13 01:27:04;;;;;;;26.92;24.73;;;8.70;99.90;;;;;;5001514;28;20042;-76
2023/05/13 01:29:31;;;;;;;27.50;25.27;;;8.60;99.90;;;;;;4987597;28;20132;-76
2023/05/13 01:32:01;;;;;;;29.02;26.63;;;8.50;99.90;;;;;;5004875;28;20056;-78
2023/05/13 01:34:29;;;;;;;28.27;26.02;;;8.50;99.90;;;;;;5017861;28;20056;-79
2023/05/13 01:36:58;;;;;;;28.45;26.05;;;8.50;99.90;;;;;;5041330;28;20041;-76
2023/05/13 01:39:27;;;;;;;27.65;25.42;;;8.60;99.90;;;;;;4987242;28;20134;-76
2023/05/13 01:41:57;;;;;;;29.33;26.50;;;8.80;99.90;;;;;;4996347;28;20044;-76
2023/05/13 01:44:24;;;;;;;28.35;26.00;;;8.60;99.90;;;;;;4999223;28;20044;-76
2023/05/13 01:46:52;;;;;;;28.85;26.55;;;8.50;99.90;;;;;;4996716;28;20757;-77
2023/05/13 01:49:19;;;;;;;29.83;27.33;;;8.40;99.90;;;;;;5002897;28;20145;-79
2023/05/13 01:51:46;;;;;;;31.85;28.85;;;8.50;99.90;;;;;;4997830;28;20080;-78
2023/05/13 01:54:13;;;;;;;31.85;29.08;;;8.70;99.90;;;;;;5017547;28;20633;-78
2023/05/13 01:56:45;;;;;;;31.60;28.65;;;8.60;99.90;;;;;;4989122;28;20062;-78
2023/05/13 01:59:12;;;;;;;29.98;27.27;;;8.50;99.90;;;;;;4968120;28;20061;-78
2023/05/13 02:01:39;;;;;;;30.13;27.48;;;8.40;99.90;;;;;;4980634;28;20621;-79
2023/05/13 02:04:06;;;;;;;29.20;27.02;;;8.30;99.90;;;;;;4996985;28;20045;-77
2023/05/13 02:06:33;;;;;;;28.95;26.55;;;8.40;99.90;;;;;;4987031;28;20121;-79
2023/05/13 02:09:00;;;;;;;28.10;25.17;;;8.30;99.90;;;;;;4999549;28;20099;-79
2023/05/13 02:11:28;;;;;;;28.75;25.70;;;8.30;99.90;;;;;;4990453;28;20046;-79
2023/05/13 02:13:56;;;;;;;28.85;26.60;;;8.30;99.90;;;;;;4979380;28;20662;-79
2023/05/13 02:16:23;;;;;;;30.33;27.63;;;8.30;99.90;;;;;;4986285;28;20414;-76
2023/05/13 02:18:50;;;;;;;30.35;27.77;;;8.30;99.90;;;;;;5014032;28;20125;-79
2023/05/13 02:21:17;;;;;;;31.33;28.52;;;8.30;99.90;;;;;;4990513;28;20042;-77
2023/05/13 02:23:44;;;;;;;29.77;27.05;;;8.40;99.90;;;;;;4976451;28;20141;-79
2023/05/13 02:26:10;;;;;;;28.08;25.67;;;8.50;99.90;;;;;;4979288;28;20130;-77
2023/05/13 02:28:38;;;;;;;26.60;24.42;;;8.40;99.90;;;;;;4965701;28;20110;-76
2023/05/13 02:31:05;;;;;;;31.73;26.92;;;8.40;99.90;;;;;;4961839;28;20038;-78
2023/05/13 02:33:32;;;;;;;28.60;26.27;;;8.40;99.90;;;;;;4975618;28;20046;-78
2023/05/13 02:35:59;;;;;;;29.88;26.95;;;8.50;99.90;;;;;;4986798;28;20087;-78
2023/05/13 02:38:26;;;;;;;28.42;25.88;;;8.60;99.90;;;;;;4998361;28;20430;-78
2023/05/13 02:40:53;;;;;;;29.33;26.52;;;8.70;99.90;;;;;;4993625;28;20042;-78
2023/05/13 02:43:20;;;;;;;28.55;25.83;;;8.70;99.90;;;;;;4978225;28;20997;-78
2023/05/13 02:45:54;;;;;;;27.20;24.87;;;8.50;99.90;;;;;;4968595;28;20103;-79
2023/05/13 02:48:21;;;;;;;27.35;25.08;;;8.50;99.90;;;;;;5001158;28;20375;-76
2023/05/13 02:50:47;;;;;;;27.83;25.45;;;8.40;99.90;;;;;;4978962;28;20425;-77
2023/05/13 02:53:14;;;;;;;28.35;25.85;;;8.20;99.90;;;;;;4978508;28;20419;-77
2023/05/13 02:55:47;;;;;;;29.08;26.10;;;8.10;99.90;;;;;;4982109;28;20042;-78
2023/05/13 02:58:14;;;;;;;29.48;26.48;;;8.10;99.90;;;;;;4980475;28;21475;-75
2023/05/13 03:00:41;;;;;;;28.60;26.13;;;7.90;99.90;;;;;;5018668;28;20041;-76
2023/05/13 03:03:09;;;;;;;29.75;27.30;;;7.90;99.90;;;;;;4999510;28;20511;-78
2023/05/13 03:05:36;;;;;;;30.08;27.10;;;7.90;99.90;;;;;;4999864;28;20041;-78
2023/05/13 03:08:04;;;;;;;26.88;24.58;;;7.90;99.90;;;;;;5016285;28;20064;-77
2023/05/13 03:10:31;;;;;;;29.67;26.85;;;7.90;99.90;;;;;;4996487;28;20095;-79
2023/05/13 03:12:58;;;;;;;28.15;25.67;;;7.90;99.90;;;;;;5016578;28;20045;-75
2023/05/13 03:15:24;;;;;;;30.17;27.73;;;7.90;99.90;;;;;;5010903;28;20068;-75
2023/05/13 03:17:51;;;;;;;29.95;27.25;;;8.00;99.90;;;;;;4993093;28;20041;-79
2023/05/13 03:20:19;;;;;;;28.23;25.63;;;8.30;99.90;;;;;;4999640;28;20044;-76
2023/05/13 03:22:46;;;;;;;29.73;27.17;;;8.60;99.90;;;;;;5000917;28;20107;-78
2023/05/13 03:25:14;;;;;;;29.70;27.30;;;8.70;99.90;;;;;;4998345;28;20072;-75
2023/05/13 03:27:46;;;;;;;28.52;25.98;;;8.60;99.90;;;;;;4986498;28;20075;-76
2023/05/13 03:30:14;;;;;;;30.67;28.13;;;8.50;99.90;;;;;;4996582;28;20099;-76
2023/05/13 03:32:50;;;;;;;28.15;25.73;;;8.50;99.90;;;;;;4998486;28;20045;-76
2023/05/13 03:35:18;;;;;;;29.75;27.13;;;8.40;99.90;;;;;;4994467;28;20049;-76
2023/05/13 03:37:44;;;;;;;30.38;27.70;;;8.30;99.90;;;;;;4999668;28;20649;-76
2023/05/13 03:40:13;;;;;;;29.45;26.95;;;8.20;99.90;;;;;;4996055;28;20049;-78
2023/05/13 03:42:40;;;;;;;29.08;26.58;;;8.20;99.90;;;;;;4997526;28;20053;-75
2023/05/13 03:45:07;;;;;;;29.45;27.15;;;8.10;99.90;;;;;;4998141;28;20099;-76
2023/05/13 03:47:38;;;;;;;28.55;26.25;;;8.20;99.90;;;;;;5000710;28;20037;-78
2023/05/13 03:50:08;;;;;;;29.55;26.73;;;8.10;99.90;;;;;;4998266;28;20052;-78
2023/05/13 03:52:40;;;;;;;29.20;26.60;;;8.10;99.90;;;;;;4984163;28;20069;-78
2023/05/13 03:55:08;;;;;;;28.55;26.05;;;8.10;99.90;;;;;;5011970;28;20702;-78
2023/05/13 03:57:35;;;;;;;27.80;25.60;;;8.10;99.90;;;;;;4989744;28;20049;-78
2023/05/13 04:00:03;;;;;;;27.15;25.08;;;8.10;99.90;;;;;;4998947;28;20100;-77
2023/05/13 04:02:40;;;;;;;29.80;27.10;;;8.00;99.90;;;;;;5005083;28;20041;-78
2023/05/13 04:05:08;;;;;;;29.45;27.00;;;8.00;99.90;;;;;;4994408;28;20038;-78
2023/05/13 04:07:35;;;;;;;28.42;26.33;;;8.00;99.90;;;;;;5000461;28;20034;-78
2023/05/13 04:10:02;;;;;;;27.40;25.48;;;8.00;99.90;;;;;;4997110;28;20122;-78
2023/05/13 04:12:30;;;;;;;28.63;26.42;;;8.00;99.90;;;;;;5013340;28;20044;-78
2023/05/13 04:14:56;;;;;;;27.50;25.13;;;8.00;99.90;;;;;;4989410;28;20348;-78
2023/05/13 04:17:24;;;;;;;29.20;26.52;;;8.00;99.90;;;;;;4978474;28;20053;-78
2023/05/13 04:19:54;;;;;;;27.70;25.25;;;8.10;99.90;;;;;;4994548;28;20040;-78
2023/05/13 04:22:23;;;;;;;27.30;24.90;;;8.00;99.90;;;;;;5012350;28;20046;-78
2023/05/13 04:24:55;;;;;;;27.95;25.60;;;8.00;99.90;;;;;;4996895;28;20087;-77
2023/05/13 04:27:23;;;;;;;29.42;26.65;;;8.10;99.90;;;;;;5012063;28;20057;-77
2023/05/13 04:29:53;;;;;;;27.77;25.20;;;8.30;99.90;;;;;;4999142;28;20046;-77
2023/05/13 04:32:20;;;;;;;25.95;23.77;;;8.30;99.90;;;;;;4998727;28;20613;-77
2023/05/13 04:34:51;;;;;;;26.48;24.27;;;8.50;99.90;;;;;;4983177;28;20132;-77
2023/05/13 04:37:18;;;;;;;27.10;24.65;;;8.50;99.90;;;;;;5000732;28;20052;-77
2023/05/13 04:39:46;;;;;;;28.67;26.15;;;8.50;99.90;;;;;;5002840;28;20064;-77
2023/05/13 04:42:15;;;;;;;28.60;26.27;;;8.60;99.90;;;;;;5001333;28;20077;-76
2023/05/13 04:44:42;;;;;;;27.33;24.88;;;8.60;99.90;;;;;;5003137;28;20049;-77
2023/05/13 04:47:10;;;;;;;28.45;26.13;;;8.80;99.90;;;;;;4999164;28;20145;-77
2023/05/13 04:49:36;;;;;;;28.45;26.15;;;8.90;99.90;;;;;;5003205;28;20140;-77
2023/05/13 04:52:05;;;;;;;27.73;25.55;;;9.00;99.90;;;;;;4999621;28;20053;-77
2023/05/13 04:54:34;;;;;;;26.73;24.65;;;9.30;99.90;;;;;;4987400;28;20824;-77
2023/05/13 04:57:02;;;;;;;27.98;25.88;;;9.50;99.90;;;;;;4999639;28;20069;-77
2023/05/13 04:59:29;;;;;;;27.38;25.10;;;9.80;99.90;;;;;;4999398;28;20041;-78
2023/05/13 05:01:56;;;;;;;28.45;26.17;;;10.00;99.90;;;;;;4998004;28;20033;-77
2023/05/13 05:04:24;;;;;;;29.60;27.30;;;10.40;99.90;;;;;;5002269;28;20079;-77
2023/05/13 05:06:51;;;;;;;30.05;27.92;;;10.70;99.90;;;;;;4998388;28;20046;-77
2023/05/13 05:09:18;;;;;;;29.92;27.67;;;11.00;99.90;;;;;;4998497;28;20038;-77
2023/05/13 05:11:48;;;;;;;29.90;27.45;;;11.50;99.90;;;;;;4996415;28;20037;-77
2023/05/13 05:14:16;;;;;;;29.92;27.92;;;11.70;99.90;;;;;;4998886;28;20129;-77
2023/05/13 05:16:44;;;;;;;31.40;29.05;;;12.10;99.90;;;;;;4999012;28;20041;-78
2023/05/13 05:19:13;;;;;;;29.30;27.20;;;12.50;99.90;;;;;;5001844;28;20573;-78
2023/05/13 05:21:40;;;;;;;29.23;27.08;;;12.90;99.90;;;;;;4996882;28;20042;-77
2023/05/13 05:24:07;;;;;;;29.30;26.88;;;13.20;99.90;;;;;;4998016;28;20124;-77
2023/05/13 05:26:34;;;;;;;29.52;27.48;;;13.40;99.90;;;;;;5008992;28;20041;-77
2023/05/13 05:29:01;;;;;;;28.25;26.42;;;13.50;99.90;;;;;;5014809;28;20053;-77
2023/05/13 05:31:28;;;;;;;28.27;26.27;;;13.40;99.90;;;;;;5003084;28;20052;-77
2023/05/13 05:33:59;;;;;;;29.60;27.23;;;13.30;99.90;;;;;;4986016;28;20430;-78
2023/05/13 05:36:28;;;;;;;29.33;26.95;;;13.30;99.90;;;;;;5000587;28;20131;-76
2023/05/13 05:38:55;;;;;;;29.42;27.23;;;13.40;99.90;;;;;;5003543;28;20076;-77
2023/05/13 05:41:28;;;;;;;30.17;27.75;;;13.30;99.90;;;;;;5027066;28;20044;-77
2023/05/13 05:43:55;;;;;;;29.30;27.10;;;13.20;99.90;;;;;;5016243;28;20723;-77
2023/05/13 05:46:22;;;;;;;29.70;27.38;;;13.20;99.90;;;;;;4993645;28;20045;-77
2023/05/13 05:48:49;;;;;;;29.92;27.55;;;13.30;99.90;;;;;;4988215;28;20076;-77
2023/05/13 05:51:16;;;;;;;28.20;26.10;;;13.30;99.90;;;;;;4984860;28;20492;-77
2023/05/13 05:53:43;;;;;;;28.30;25.98;;;13.30;99.90;;;;;;5001625;28;20041;-77
2023/05/13 05:56:12;;;;;;;28.23;25.85;;;13.40;99.90;;;;;;5004478;28;20495;-77
2023/05/13 05:58:39;;;;;;;27.83;25.60;;;13.60;99.90;;;;;;5017131;28;20132;-77
2023/05/13 06:01:06;;;;;;;28.00;26.00;;;14.00;99.90;;;;;;5008365;28;20167;-78
2023/05/13 06:03:32;;;;;;;27.55;25.40;;;14.30;99.90;;;;;;4999330;28;20085;-77
2023/05/13 06:05:59;;;;;;;28.42;26.25;;;14.60;99.90;;;;;;4997078;28;20499;-77
2023/05/13 06:08:29;;;;;;;27.05;25.17;;;15.20;99.90;;;;;;4997211;28;20039;-77
2023/05/13 06:10:59;;;;;;;27.30;25.15;;;15.60;99.90;;;;;;5015402;28;20041;-77
2023/05/13 06:13:26;;;;;;;28.35;26.17;;;16.10;99.90;;;;;;5001160;28;20095;-77
2023/05/13 06:15:53;;;;;;;26.15;24.40;;;16.70;99.90;;;;;;4998576;28;20813;-75
2023/05/13 06:18:20;;;;;;;28.70;26.70;;;16.80;99.90;;;;;;4999232;28;20063;-75
2023/05/13 06:20:47;;;;;;;28.90;26.63;;;16.80;99.90;;;;;;5000426;28;20068;-76
2023/05/13 06:23:14;;;;;;;30.55;27.80;;;17.00;99.90;;;;;;4999471;28;20033;-75
2023/05/13 06:25:41;;;;;;;30.00;27.45;;;17.20;99.90;;;;;;5000863;28;20284;-75
2023/05/13 06:28:10;;;;;;;29.55;27.40;;;17.20;99.90;;;;;;5005741;28;20111;-75
2023/05/13 06:30:38;;;;;;;32.30;30.15;;;17.30;99.90;;;;;;5014624;28;20084;-75
2023/05/13 06:33:04;;;;;;;32.35;30.15;;;17.40;99.90;;;;;;4997922;28;20114;-75
2023/05/13 06:35:31;;;;;;;32.92;30.52;;;17.40;99.90;;;;;;4995459;28;20041;-75
2023/05/13 06:38:01;;;;;;;32.75;30.05;;;17.00;99.90;;;;;;5003986;28;20041;-76
2023/05/13 06:40:28;;;;;;;34.80;31.75;;;17.10;99.90;;;;;;4999642;28;20046;-75
2023/05/13 06:42:56;;;;;;;36.85;34.25;;;17.60;99.90;;;;;;5001417;28;20046;-75
2023/05/13 06:45:35;;;;;;;34.20;31.88;;;17.60;99.90;;;;;;4999847;28;20391;-75
2023/05/13 06:48:02;;;;;;;32.70;30.55;;;17.80;99.90;;;;;;4999228;28;20120;-76
2023/05/13 06:50:29;;;;;;;35.25;32.88;;;17.90;99.90;;;;;;5009469;28;20054;-75
2023/05/13 06:52:57;;;;;;;36.92;33.78;;;17.70;99.90;;;;;;4997774;28;20103;-77
2023/05/13 06:55:24;;;;;;;35.15;32.85;;;17.00;99.90;;;;;;5013620;28;20052;-75
2023/05/13 06:57:51;;;;;;;34.20;31.77;;;17.40;99.90;;;;;;4995862;28;20132;-75
2023/05/13 07:00:18;;;;;;;34.30;32.17;;;18.00;99.90;;;;;;5016277;28;20048;-75
2023/05/13 07:02:45;;;;;;;35.85;33.15;;;18.10;99.90;;;;;;5017555;28;20045;-75
2023/05/13 07:05:12;;;;;;;34.47;31.85;;;18.60;99.90;;;;;;4991188;28;20673;-75
2023/05/13 07:07:39;;;;;;;34.67;32.42;;;19.00;99.90;;;;;;5000133;28;20507;-75
2023/05/13 07:10:06;;;;;;;34.95;32.63;;;19.30;99.90;;;;;;4998881;28;20069;-75
2023/05/13 07:12:33;;;;;;;34.53;32.42;;;19.50;99.90;;;;;;5000888;28;20625;-75
2023/05/13 07:14:59;;;;;;;36.13;33.50;;;19.80;99.90;;;;;;5001309;28;20041;-75
2023/05/13 07:17:26;;;;;;;35.10;32.75;;;18.70;99.90;;;;;;4998362;28;20049;-75
2023/05/13 07:19:53;;;;;;;35.63;32.90;;;18.20;99.90;;;;;;5000256;28;20458;-76
2023/05/13 07:22:19;;;;;;;36.63;34.35;;;17.80;99.90;;;;;;5022573;28;20038;-77
2023/05/13 07:24:46;;;;;;;36.95;34.50;;;17.50;99.90;;;;;;5013111;28;20037;-75
2023/05/13 07:27:12;;;;;;;35.72;33.28;;;17.50;99.90;;;;;;4979139;28;20510;-74
2023/05/13 07:29:39;;;;;;;35.92;33.58;;;17.90;99.90;;;;;;5017692;28;20061;-74
2023/05/13 07:32:06;;;;;;;36.58;34.35;;;18.00;99.90;;;;;;5015872;28;20041;-78
2023/05/13 07:34:33;;;;;;;35.13;32.83;;;17.80;99.90;;;;;;4996254;28;20048;-75
2023/05/13 07:37:00;;;;;;;35.78;33.28;;;17.80;99.90;;;;;;4997655;28;20052;-77
2023/05/13 07:39:27;;;;;;;35.70;33.50;;;18.10;99.90;;;;;;4998651;28;20639;-76
2023/05/13 07:41:53;;;;;;;36.85;34.28;;;17.90;99.90;;;;;;5016728;28;20507;-76
2023/05/13 07:44:20;;;;;;;36.10;33.75;;;18.30;99.90;;;;;;4998367;28;20053;-74
2023/05/13 07:46:48;;;;;;;37.38;34.83;;;18.70;99.90;;;;;;4996957;28;20049;-76
2023/05/13 07:49:15;;;;;;;37.30;34.90;;;18.30;99.90;;;;;;4999716;28;20060;-75
2023/05/13 07:51:41;;;;;;;35.88;33.67;;;18.90;99.90;;;;;;5019067;28;20074;-75
2023/05/13 07:54:09;;;;;;;37.95;35.22;;;19.80;99.90;;;;;;5000498;28;20073;-77
2023/05/13 07:56:36;;;;;;;35.60;33.47;;;20.10;99.90;;;;;;5029049;28;20081;-75
2023/05/13 07:59:04;;;;;;;37.10;34.80;;;20.70;99.90;;;;;;5001995;28;20046;-76
2023/05/13 08:01:31;;;;;;;37.33;34.47;;;21.30;99.90;;;;;;4999885;28;20041;-74
2023/05/13 08:03:57;;;;;;;35.60;33.40;;;20.70;99.90;;;;;;4986028;28;20072;-75
2023/05/13 08:06:25;;;;;;;36.28;33.67;;;20.90;99.90;;;;;;4985244;28;20049;-76
2023/05/13 08:08:52;;;;;;;37.70;35.40;;;21.00;99.90;;;;;;5000798;28;20068;-74
2023/05/13 08:11:18;;;;;;;36.45;34.15;;;20.80;99.90;;;;;;4987121;28;20076;-77
2023/05/13 08:13:45;;;;;;;40.20;37.60;;;20.70;99.90;;;;;;5019403;28;20131;-75
2023/05/13 08:16:11;;;;;;;38.53;36.03;;;20.10;99.90;;;;;;5012032;28;20041;-76
2023/05/13 08:18:38;;;;;;;38.85;36.25;;;19.80;99.90;;;;;;5000792;28;20038;-75
2023/05/13 08:21:05;;;;;;;38.95;36.60;;;19.60;99.90;;;;;;4999376;28;20047;-76
2023/05/13 08:23:32;;;;;;;39.70;36.92;;;19.40;99.90;;;;;;5042378;28;20152;-76
2023/05/13 08:26:11;;;;;;;37.97;35.58;;;19.40;99.90;;;;;;5033163;28;20033;-75
2023/05/13 08:28:38;;;;;;;39.42;36.92;;;19.40;99.90;;;;;;5021631;28;20045;-75
2023/05/13 08:31:05;;;;;;;40.22;37.53;;;19.40;99.90;;;;;;5012533;28;20042;-77
2023/05/13 08:33:32;;;;;;;42.08;39.38;;;19.00;99.90;;;;;;5016850;28;21032;-76
2023/05/13 08:36:00;;;;;;;38.85;36.22;;;19.10;99.90;;;;;;5004155;28;20651;-75
2023/05/13 08:38:27;;;;;;;36.05;33.33;;;19.70;99.90;;;;;;5023406;28;20564;-76
2023/05/13 08:40:53;;;;;;;37.53;35.15;;;20.20;99.90;;;;;;5006689;28;20593;-76
2023/05/13 08:43:23;;;;;;;36.25;34.15;;;20.60;99.90;;;;;;5021604;28;20499;-76
2023/05/13 08:45:52;;;;;;;34.97;32.70;;;20.80;99.90;;;;;;5023236;28;20037;-75
2023/05/13 08:48:20;;;;;;;37.92;34.97;;;19.90;99.90;;;;;;5003061;28;20483;-76
2023/05/13 08:50:47;;;;;;;36.85;34.20;;;19.90;99.90;;;;;;5018705;28;20052;-75
2023/05/13 08:53:16;;;;;;;35.33;33.13;;;19.40;99.90;;;;;;5004424;28;20057;-75
2023/05/13 08:55:42;;;;;;;37.22;34.58;;;19.60;99.90;;;;;;5007669;28;20050;-75
2023/05/13 08:58:09;;;;;;;37.00;34.38;;;20.10;99.90;;;;;;5003298;28;20049;-73
2023/05/13 09:00:36;;;;;;;38.30;35.78;;;20.10;99.90;;;;;;4999836;28;20050;-74
2023/05/13 09:03:03;;;;;;;37.53;35.13;;;19.10;99.90;;;;;;4999181;28;20743;-77
2023/05/13 09:05:32;;;;;;;40.95;38.20;;;19.50;99.90;;;;;;5018217;28;20064;-75
2023/05/13 09:08:09;;;;;;;40.70;38.20;;;19.30;99.90;;;;;;5004210;28;20045;-76
2023/05/13 09:10:36;;;;;;;38.97;36.38;;;19.40;99.90;;;;;;5021721;28;20049;-75
2023/05/13 09:13:04;;;;;;;42.65;39.65;;;20.00;99.90;;;;;;5027908;28;20047;-76
2023/05/13 09:15:31;;;;;;;41.55;38.85;;;19.50;99.90;;;;;;5014843;28;20037;-76
2023/05/13 09:18:05;;;;;;;42.92;40.30;;;19.20;99.90;;;;;;5022210;28;20049;-76
2023/05/13 09:20:33;;;;;;;42.35;39.22;;;19.80;99.90;;;;;;5001414;28;20052;-77
2023/05/13 09:23:02;;;;;;;41.75;39.00;;;20.30;99.90;;;;;;4985366;28;20042;-75
2023/05/13 09:25:30;;;;;;;43.50;40.65;;;20.90;99.90;;;;;;4999436;28;20037;-75
2023/05/13 09:28:02;;;;;;;43.30;40.13;;;21.00;99.90;;;;;;5004041;28;20034;-76
2023/05/13 09:30:40;;;;;;;44.05;40.95;;;21.30;99.90;;;;;;5001769;28;20145;-76
2023/05/13 09:33:18;;;;;;;43.70;40.97;;;21.00;99.90;;;;;;5020849;28;20045;-76
2023/05/13 09:35:53;;;;;;;44.25;41.53;;;21.20;99.90;;;;;;4989695;28;20037;-76
2023/05/13 09:38:25;;;;;;;43.05;40.45;;;21.10;99.90;;;;;;4986989;28;20041;-74
2023/05/13 09:40:57;;;;;;;44.58;41.78;;;20.60;99.90;;;;;;5026391;28;20132;-75
2023/05/13 09:43:30;;;;;;;44.00;41.25;;;20.90;99.90;;;;;;5004705;28;20502;-75
2023/05/13 09:46:00;;;;;;;43.35;40.50;;;21.10;99.90;;;;;;5014476;28;20041;-76
2023/05/13 09:48:29;;;;;;;42.03;39.33;;;20.30;99.90;;;;;;5017471;28;20044;-76
2023/05/13 09:51:01;;;;;;;43.10;40.70;;;20.30;99.90;;;;;;5003615;28;20044;-75
2023/05/13 09:53:30;;;;;;;42.22;39.20;;;20.30;99.90;;;;;;5001939;28;20056;-76
2023/05/13 09:55:58;;;;;;;42.63;39.78;;;20.30;99.90;;;;;;5001954;28;20034;-76
2023/05/13 09:58:27;;;;;;;43.70;40.70;;;20.40;99.90;;;;;;5013136;28;20107;-76
2023/05/13 10:00:58;;;;;;;39.63;37.13;;;20.80;99.90;;;;;;5006986;28;20075;-74
2023/05/13 10:03:27;;;;;;;42.05;39.28;;;21.00;99.90;;;;;;5002294;28;20047;-76
2023/05/13 10:05:55;;;;;;;41.05;38.67;;;21.20;99.90;;;;;;4986908;28;20459;-76
2023/05/13 10:08:23;;;;;;;42.72;40.03;;;21.60;99.90;;;;;;4982387;28;20049;-74
2023/05/13 10:10:53;;;;;;;42.72;40.03;;;21.30;99.90;;;;;;4984738;28;20117;-74
2023/05/13 10:13:23;;;;;;;43.10;40.20;;;21.40;99.90;;;;;;4982732;28;20064;-76
2023/05/13 10:15:52;;;;;;;41.60;38.80;;;20.90;99.90;;;;;;5006050;28;20871;-73
2023/05/13 10:18:20;;;;;;;42.50;39.78;;;21.40;99.90;;;;;;4983122;28;20104;-77
2023/05/13 10:20:51;;;;;;;41.78;39.05;;;20.90;99.90;;;;;;4999587;28;20042;-77
2023/05/13 10:23:20;;;;;;;41.85;39.13;;;20.70;99.90;;;;;;4998507;28;20205;-77
2023/05/13 10:25:47;;;;;;;42.25;39.67;;;21.00;99.90;;;;;;4982950;28;20055;-77
2023/05/13 10:28:21;;;;;;;44.17;41.38;;;21.00;99.90;;;;;;4980782;28;20041;-74
2023/05/13 10:30:50;;;;;;;43.47;40.78;;;20.90;99.90;;;;;;5000059;28;20152;-76
2023/05/13 10:33:18;;;;;;;41.97;39.33;;;21.10;99.90;;;;;;5001557;28;20136;-76
2023/05/13 10:36:24;;;;;;;46.13;43.28;;;20.80;99.90;;;;;;4992588;28;20040;-76
2023/05/13 10:39:09;;;;;;;43.58;40.92;;;20.60;99.90;;;;;;5015643;28;20132;-76
2023/05/13 10:41:55;;;;;;;43.42;40.63;;;20.70;99.90;;;;;;5001974;28;20057;-75
2023/05/13 10:44:22;;;;;;;;;;;21.40;99.90;;;;;;5018290;28;20410;-74
2023/05/13 10:46:49;;;;;;;44.67;42.00;;;22.00;99.90;;;;;;4999405;28;20359;-76
2023/05/13 10:49:16;;;;;;;44.20;41.38;;;22.40;99.90;;;;;;4990933;28;20053;-77
2023/05/13 10:51:48;;;;;;;43.40;40.72;;;21.80;99.90;;;;;;5001873;28;20036;-73
2023/05/13 10:54:23;;;;;;;44.67;42.08;;;22.10;99.90;;;;;;5002327;28;20109;-75
2023/05/13 10:56:57;;;;;;;38.42;36.03;;;22.60;99.90;;;;;;4995259;28;20776;-75
2023/05/13 10:59:29;;;;;;;43.65;40.80;;;22.00;99.90;;;;;;5019144;28;20042;-76
2023/05/13 11:01:56;;;;;;;39.33;36.85;;;21.60;99.90;;;;;;5019668;28;20038;-76
2023/05/13 11:04:22;;;;;;;43.53;40.90;;;21.50;99.90;;;;;;5002863;28;20057;-75
2023/05/13 11:06:50;;;;;;;44.30;41.40;;;21.60;99.90;;;;;;5005815;28;20030;-76
2023/05/13 11:09:21;;;;;;;46.80;43.92;;;21.60;99.90;;;;;;5001757;28;20128;-75
2023/05/13 11:11:58;;;;;;;46.85;43.88;;;21.00;99.90;;;;;;5012423;28;20543;-75
2023/05/13 11:14:29;;;;;;;46.78;43.67;;;20.30;99.90;;;;;;5001107;28;20053;-75
2023/05/13 11:17:03;;;;;;;44.50;41.80;;;20.60;99.90;;;;;;4986285;28;20046;-74
2023/05/13 11:19:33;;;;;;;46.17;43.42;;;21.40;99.90;;;;;;5009811;28;20049;-75
2023/05/13 11:22:14;;;;;;;44.83;42.08;;;21.50;99.90;;;;;;5025836;28;20045;-76
2023/05/13 11:24:44;;;;;;;46.90;43.95;;;22.00;99.90;;;;;;5005958;28;21703;-76
2023/05/13 11:27:16;;;;;;;47.95;44.85;;;22.60;99.90;;;;;;4998087;28;20034;-76
2023/05/13 11:29:49;;;;;;;46.58;43.97;;;22.10;99.90;;;;;;5012232;28;20050;-76
2023/05/13 11:32:52;;;;;;;47.30;44.10;;;21.60;99.90;;;;;;5001156;28;20108;-75
2023/05/13 11:35:30;;;;;;;46.28;43.58;;;22.30;99.90;;;;;;4995285;28;20057;-75
2023/05/13 11:37:59;;;;;;;43.28;40.45;;;22.20;99.90;;;;;;5014620;28;20056;-76
2023/05/13 11:40:30;;;;;;;46.72;44.03;;;22.00;99.90;;;;;;5015522;28;20573;-76
2023/05/13 11:42:57;;;;;;;46.75;44.05;;;21.60;99.90;;;;;;5015540;28;20060;-75
2023/05/13 11:45:25;;;;;;;44.53;42.03;;;20.80;99.90;;;;;;4993255;28;20729;-77
2023/05/13 11:47:53;;;;;;;48.05;45.05;;;20.30;99.90;;;;;;4995596;28;20077;-76
2023/05/13 11:50:29;;;;;;;46.83;44.00;;;20.60;99.90;;;;;;4974707;28;20488;-75
2023/05/13 11:52:58;;;;;;;45.22;42.28;;;21.10;99.90;;;;;;5013416;28;20661;-75
2023/05/13 11:55:33;;;;;;;48.78;44.92;;;21.30;99.90;;;;;;4984402;28;20039;-76
2023/05/13 11:58:00;;;;;;;46.05;42.90;;;21.90;99.90;;;;;;4994353;28;20049;-75
2023/05/13 12:00:30;;;;;;;43.47;40.88;;;21.60;99.90;;;;;;4995735;28;20044;-76
2023/05/13 12:02:58;;;;;;;44.10;41.50;;;21.70;99.90;;;;;;4999564;28;20052;-76
2023/05/13 12:05:25;;;;;;;45.33;42.45;;;21.80;99.90;;;;;;4998496;28;20053;-76
2023/05/13 12:07:57;;;;;;;40.15;37.45;;;22.00;99.90;;;;;;5000785;28;20469;-76
2023/05/13 12:10:25;;;;;;;45.00;42.05;;;22.30;99.90;;;;;;5012207;28;20096;-77
2023/05/13 12:12:53;;;;;;;45.72;42.80;;;22.40;99.90;;;;;;5001428;28;20141;-76
2023/05/13 12:15:20;;;;;;;44.40;41.72;;;21.10;99.90;;;;;;4999069;28;20052;-78
2023/05/13 12:17:48;;;;;;;45.83;43.03;;;19.90;99.90;;;;;;5019140;28;20052;-77
2023/05/13 12:20:18;;;;;;;50.45;47.35;;;20.10;99.90;;;;;;5030265;28;20261;-74
2023/05/13 12:22:44;;;;;;;48.80;45.88;;;20.70;99.90;;;;;;5015034;28;20495;-77
2023/05/13 12:25:36;;;;;;;42.25;39.40;;;20.80;99.90;;;;;;4994620;28;20049;-75
2023/05/13 12:28:08;;;;;;;40.65;38.03;;;21.00;99.90;;;;;;4987996;28;20049;-77
2023/05/13 12:30:39;;;;;;;48.83;45.58;;;20.70;99.90;;;;;;4996704;28;20114;-76
2023/05/13 12:33:14;;;;;;;48.40;45.40;;;20.40;99.90;;;;;;4983965;28;20075;-76
2023/05/13 12:35:43;;;;;;;48.83;45.60;;;20.60;99.90;;;;;;4994753;28;20140;-75
2023/05/13 12:38:15;;;;;;;49.55;46.70;;;20.80;99.90;;;;;;4989557;28;20135;-75
2023/05/13 12:40:42;;;;;;;49.45;46.55;;;20.70;99.90;;;;;;4998623;28;20065;-75